SWA1921 KDEN-KLGB
Flight info
| Callsign | SWA1921 |
|---|---|
| Flight time | N/A |
| Altitude | 34000 |
| Route | CONNR8 WERNR ZAKRY BUGGG Q114 NATEE DSNEE6 |
| Aircraft | B737/M-SADE2E3GIJ4RWZ/LB1D1 |
Departure
| Time | N/A |
|---|---|
| Airport | Denver International Airport (KDEN) |
Arrival
| Time | 2026-05-06 20:01 |
|---|---|
| Airport | Long Beach International Airport (KLGB) |
| Time | Latitude | Longitude | Altitude | Speed | Heading |
|---|---|---|---|---|---|
| 2026-05-06 19:19 | 36.31563 | -114.40168 | 33957 ft | 509 kts | 232° |
| 2026-05-06 19:20 | 36.29259 | -114.43521 | 33972 ft | 509 kts | 232° |
| 2026-05-06 19:20 | 36.24667 | -114.50194 | 33971 ft | 509 kts | 232° |
| 2026-05-06 19:21 | 36.20066 | -114.56867 | 33969 ft | 510 kts | 231° |
| 2026-05-06 19:21 | 36.15459 | -114.63536 | 33990 ft | 509 kts | 231° |
| 2026-05-06 19:22 | 36.10855 | -114.70188 | 34021 ft | 509 kts | 231° |
| 2026-05-06 19:22 | 36.06260 | -114.76814 | 34057 ft | 509 kts | 231° |
| 2026-05-06 19:23 | 36.01648 | -114.83454 | 34069 ft | 509 kts | 231° |
| 2026-05-06 19:23 | 35.97004 | -114.90043 | 34052 ft | 509 kts | 230° |
| 2026-05-06 19:24 | 35.92283 | -114.96468 | 34063 ft | 508 kts | 229° |
| 2026-05-06 19:24 | 35.87521 | -115.02911 | 34086 ft | 508 kts | 229° |
| 2026-05-06 19:25 | 35.82772 | -115.09367 | 34069 ft | 508 kts | 229° |
| 2026-05-06 19:25 | 35.78033 | -115.15815 | 34084 ft | 508 kts | 229° |
| 2026-05-06 19:26 | 35.73323 | -115.22211 | 34085 ft | 507 kts | 229° |
| 2026-05-06 19:26 | 35.68576 | -115.28642 | 34088 ft | 508 kts | 229° |
| 2026-05-06 19:27 | 35.64598 | -115.34025 | 34074 ft | 508 kts | 229° |
| 2026-05-06 19:27 | 35.59878 | -115.40394 | 34086 ft | 507 kts | 229° |
| 2026-05-06 19:28 | 35.55120 | -115.46791 | 34095 ft | 507 kts | 229° |
| 2026-05-06 19:28 | 35.50357 | -115.53186 | 34095 ft | 508 kts | 229° |
| 2026-05-06 19:29 | 35.45585 | -115.59584 | 34094 ft | 508 kts | 229° |
| 2026-05-06 19:29 | 35.40812 | -115.65972 | 34076 ft | 508 kts | 229° |
| 2026-05-06 19:30 | 35.36038 | -115.72349 | 34087 ft | 508 kts | 229° |
| 2026-05-06 19:30 | 35.31260 | -115.78719 | 34086 ft | 508 kts | 229° |
| 2026-05-06 19:31 | 35.26483 | -115.85079 | 34080 ft | 508 kts | 228° |
| 2026-05-06 19:31 | 35.19263 | -115.94542 | 34074 ft | 503 kts | 227° |
| 2026-05-06 19:32 | 35.16863 | -115.97556 | 34053 ft | 486 kts | 226° |
| 2026-05-06 19:32 | 35.14535 | -116.00458 | 33989 ft | 472 kts | 226° |
| 2026-05-06 19:32 | 35.12254 | -116.03305 | 33610 ft | 466 kts | 226° |
| 2026-05-06 19:32 | 35.10002 | -116.06122 | 33209 ft | 461 kts | 226° |
| 2026-05-06 19:33 | 35.07778 | -116.08913 | 32840 ft | 456 kts | 226° |
| 2026-05-06 19:33 | 35.05582 | -116.11674 | 32440 ft | 451 kts | 226° |
| 2026-05-06 19:33 | 35.03403 | -116.14412 | 32004 ft | 449 kts | 226° |
| 2026-05-06 19:33 | 35.01264 | -116.17099 | 31602 ft | 445 kts | 226° |
| 2026-05-06 19:34 | 34.99083 | -116.19835 | 31189 ft | 443 kts | 226° |
| 2026-05-06 19:34 | 34.96944 | -116.22516 | 30807 ft | 440 kts | 226° |
| 2026-05-06 19:34 | 34.94844 | -116.25147 | 30414 ft | 437 kts | 226° |
| 2026-05-06 19:34 | 34.92730 | -116.27794 | 29972 ft | 435 kts | 226° |
| 2026-05-06 19:35 | 34.90626 | -116.30425 | 29530 ft | 431 kts | 226° |
| 2026-05-06 19:35 | 34.88543 | -116.33026 | 29088 ft | 427 kts | 226° |
| 2026-05-06 19:35 | 34.86488 | -116.35615 | 28704 ft | 422 kts | 227° |
| 2026-05-06 19:35 | 34.84470 | -116.38187 | 28275 ft | 418 kts | 227° |
| 2026-05-06 19:36 | 34.82473 | -116.40741 | 27846 ft | 415 kts | 227° |
| 2026-05-06 19:36 | 34.80492 | -116.43272 | 27430 ft | 411 kts | 227° |
| 2026-05-06 19:36 | 34.78528 | -116.45778 | 27021 ft | 408 kts | 227° |
| 2026-05-06 19:36 | 34.76574 | -116.48265 | 26615 ft | 405 kts | 227° |
| 2026-05-06 19:37 | 34.74638 | -116.50727 | 26206 ft | 402 kts | 227° |
| 2026-05-06 19:37 | 34.72713 | -116.53173 | 25800 ft | 399 kts | 227° |
| 2026-05-06 19:37 | 34.70798 | -116.55603 | 25395 ft | 397 kts | 227° |
| 2026-05-06 19:37 | 34.68886 | -116.58007 | 24956 ft | 395 kts | 225° |
| 2026-05-06 19:38 | 34.66873 | -116.60296 | 24426 ft | 397 kts | 222° |
| 2026-05-06 19:38 | 34.64797 | -116.62515 | 23906 ft | 399 kts | 221° |
| 2026-05-06 19:38 | 34.62697 | -116.64729 | 23288 ft | 400 kts | 221° |
| 2026-05-06 19:38 | 34.60601 | -116.66951 | 22708 ft | 400 kts | 221° |
| 2026-05-06 19:39 | 34.58552 | -116.69144 | 22156 ft | 398 kts | 222° |
| 2026-05-06 19:39 | 34.56455 | -116.71402 | 21602 ft | 396 kts | 222° |
| 2026-05-06 19:39 | 34.54403 | -116.73619 | 21069 ft | 394 kts | 222° |
| 2026-05-06 19:39 | 34.52374 | -116.75811 | 20543 ft | 386 kts | 222° |
| 2026-05-06 19:40 | 34.50391 | -116.77950 | 20021 ft | 376 kts | 222° |
| 2026-05-06 19:40 | 34.48459 | -116.80032 | 19543 ft | 367 kts | 222° |
| 2026-05-06 19:40 | 34.46571 | -116.82063 | 19078 ft | 359 kts | 222° |
| 2026-05-06 19:40 | 34.44727 | -116.84049 | 18632 ft | 351 kts | 222° |
| 2026-05-06 19:41 | 34.42908 | -116.86004 | 18158 ft | 348 kts | 222° |
| 2026-05-06 19:41 | 34.41104 | -116.87943 | 17660 ft | 345 kts | 222° |
| 2026-05-06 19:41 | 34.39317 | -116.89863 | 17210 ft | 341 kts | 222° |
| 2026-05-06 19:41 | 34.37551 | -116.91760 | 16754 ft | 338 kts | 222° |
| 2026-05-06 19:42 | 34.35801 | -116.93638 | 16327 ft | 335 kts | 222° |
| 2026-05-06 19:42 | 34.34084 | -116.95480 | 15905 ft | 333 kts | 222° |
| 2026-05-06 19:42 | 34.32334 | -116.97359 | 15411 ft | 334 kts | 222° |
| 2026-05-06 19:42 | 34.30584 | -116.99236 | 14912 ft | 337 kts | 222° |
| 2026-05-06 19:43 | 34.28855 | -117.01086 | 14486 ft | 336 kts | 222° |
| 2026-05-06 19:43 | 34.27104 | -117.02955 | 14044 ft | 336 kts | 221° |
| 2026-05-06 19:43 | 34.25233 | -117.04595 | 13804 ft | 329 kts | 211° |
| 2026-05-06 19:43 | 34.23270 | -117.05953 | 13559 ft | 321 kts | 208° |
| 2026-05-06 19:44 | 34.21344 | -117.07268 | 13342 ft | 316 kts | 210° |
| 2026-05-06 19:44 | 34.19450 | -117.08601 | 13160 ft | 315 kts | 210° |
| 2026-05-06 19:44 | 34.17562 | -117.09951 | 12950 ft | 315 kts | 210° |
| 2026-05-06 19:44 | 34.15639 | -117.11181 | 12839 ft | 312 kts | 204° |
| 2026-05-06 19:45 | 34.13652 | -117.12234 | 12750 ft | 312 kts | 202° |
| 2026-05-06 19:45 | 34.11643 | -117.13266 | 12620 ft | 316 kts | 202° |
| 2026-05-06 19:45 | 34.09609 | -117.14316 | 12515 ft | 319 kts | 202° |
| 2026-05-06 19:45 | 34.07575 | -117.15383 | 12398 ft | 319 kts | 203° |
| 2026-05-06 19:46 | 34.05548 | -117.16460 | 12286 ft | 318 kts | 204° |
| 2026-05-06 19:46 | 34.03538 | -117.17534 | 12159 ft | 315 kts | 204° |
| 2026-05-06 19:46 | 34.01545 | -117.18601 | 12038 ft | 312 kts | 204° |
| 2026-05-06 19:46 | 33.99613 | -117.19795 | 11939 ft | 314 kts | 217° |
| 2026-05-06 19:47 | 33.98085 | -117.21683 | 11613 ft | 317 kts | 231° |
| 2026-05-06 19:47 | 33.96673 | -117.23721 | 11300 ft | 316 kts | 231° |
| 2026-05-06 19:47 | 33.95265 | -117.25728 | 10979 ft | 311 kts | 231° |
| 2026-05-06 19:47 | 33.93870 | -117.27690 | 10669 ft | 306 kts | 231° |
| 2026-05-06 19:48 | 33.92501 | -117.29617 | 10370 ft | 302 kts | 231° |
| 2026-05-06 19:48 | 33.91146 | -117.31537 | 10071 ft | 300 kts | 231° |
| 2026-05-06 19:48 | 33.89800 | -117.33444 | 9757 ft | 297 kts | 231° |
| 2026-05-06 19:48 | 33.88469 | -117.35328 | 9434 ft | 293 kts | 231° |
| 2026-05-06 19:49 | 33.87156 | -117.37187 | 9135 ft | 291 kts | 231° |
| 2026-05-06 19:49 | 33.85847 | -117.39036 | 8865 ft | 290 kts | 231° |
| 2026-05-06 19:49 | 33.84538 | -117.40884 | 8576 ft | 290 kts | 231° |
| 2026-05-06 19:49 | 33.83238 | -117.42718 | 8279 ft | 286 kts | 231° |
| 2026-05-06 19:50 | 33.81973 | -117.44546 | 8010 ft | 282 kts | 237° |
| 2026-05-06 19:50 | 33.81159 | -117.46615 | 7901 ft | 268 kts | 252° |
| 2026-05-06 19:50 | 33.80546 | -117.48690 | 7782 ft | 260 kts | 253° |
| 2026-05-06 19:50 | 33.79951 | -117.50721 | 7713 ft | 256 kts | 253° |
| 2026-05-06 19:51 | 33.79353 | -117.52746 | 7633 ft | 257 kts | 252° |
| 2026-05-06 19:51 | 33.78746 | -117.54777 | 7552 ft | 259 kts | 252° |
| 2026-05-06 19:51 | 33.78137 | -117.56794 | 7461 ft | 261 kts | 252° |
| 2026-05-06 19:51 | 33.77512 | -117.58845 | 7364 ft | 261 kts | 252° |
| 2026-05-06 19:52 | 33.76889 | -117.60879 | 7254 ft | 258 kts | 252° |
| 2026-05-06 19:52 | 33.76272 | -117.62895 | 7188 ft | 258 kts | 252° |
| 2026-05-06 19:52 | 33.75657 | -117.64945 | 6894 ft | 261 kts | 252° |
| 2026-05-06 19:52 | 33.75046 | -117.66989 | 6632 ft | 258 kts | 252° |
| 2026-05-06 19:53 | 33.74445 | -117.69016 | 6347 ft | 257 kts | 253° |
| 2026-05-06 19:53 | 33.73848 | -117.71028 | 6082 ft | 255 kts | 253° |
| 2026-05-06 19:53 | 33.73256 | -117.73027 | 5818 ft | 253 kts | 253° |
| 2026-05-06 19:53 | 33.72667 | -117.75015 | 5545 ft | 252 kts | 253° |
| 2026-05-06 19:54 | 33.72083 | -117.76982 | 5289 ft | 249 kts | 253° |
| 2026-05-06 19:54 | 33.71503 | -117.78934 | 5031 ft | 247 kts | 251° |
| 2026-05-06 19:54 | 33.70929 | -117.80865 | 4784 ft | 245 kts | 252° |
| 2026-05-06 19:54 | 33.70359 | -117.82780 | 4524 ft | 242 kts | 251° |
| 2026-05-06 19:55 | 33.69795 | -117.84677 | 4268 ft | 241 kts | 252° |
| 2026-05-06 19:55 | 33.69244 | -117.86530 | 4067 ft | 242 kts | 251° |
| 2026-05-06 19:55 | 33.68688 | -117.88380 | 4040 ft | 245 kts | 251° |
| 2026-05-06 19:55 | 33.68109 | -117.90299 | 4002 ft | 245 kts | 251° |
| 2026-05-06 19:56 | 33.67615 | -117.92242 | 3989 ft | 241 kts | 266° |
| 2026-05-06 19:56 | 33.67842 | -117.94174 | 3820 ft | 231 kts | 289° |
| 2026-05-06 19:56 | 33.68356 | -117.95955 | 3578 ft | 222 kts | 290° |
| 2026-05-06 19:56 | 33.68856 | -117.97672 | 3347 ft | 214 kts | 289° |
| 2026-05-06 19:57 | 33.69336 | -117.99334 | 3120 ft | 207 kts | 289° |
| 2026-05-06 19:57 | 33.69983 | -118.00823 | 2866 ft | 200 kts | 313° |
| 2026-05-06 19:57 | 33.70943 | -118.01915 | 2703 ft | 183 kts | 311° |
| 2026-05-06 19:57 | 33.71788 | -118.02986 | 2469 ft | 170 kts | 311° |
| 2026-05-06 19:58 | 33.72578 | -118.03974 | 2274 ft | 160 kts | 312° |
| 2026-05-06 19:58 | 33.73339 | -118.04909 | 2121 ft | 155 kts | 310° |
| 2026-05-06 19:58 | 33.74072 | -118.05802 | 2009 ft | 151 kts | 312° |
| 2026-05-06 19:58 | 33.74804 | -118.06690 | 1800 ft | 147 kts | 312° |
| 2026-05-06 19:59 | 33.75497 | -118.07534 | 1609 ft | 139 kts | 311° |
| 2026-05-06 19:59 | 33.76185 | -118.08386 | 1390 ft | 143 kts | 312° |
| 2026-05-06 19:59 | 33.76871 | -118.09243 | 1197 ft | 143 kts | 313° |
| 2026-05-06 19:59 | 33.77567 | -118.10071 | 1002 ft | 138 kts | 314° |
| 2026-05-06 20:00 | 33.78242 | -118.10865 | 800 ft | 135 kts | 311° |
| 2026-05-06 20:00 | 33.78900 | -118.11682 | 626 ft | 138 kts | 313° |
| 2026-05-06 20:00 | 33.79578 | -118.12493 | 406 ft | 138 kts | 313° |
| 2026-05-06 20:00 | 33.80268 | -118.13318 | 210 ft | 140 kts | 312° |
| 2026-05-06 20:01 | 33.80945 | -118.14133 | 46 ft | 133 kts | 314° |
| 2026-05-06 20:01 | 33.81494 | -118.14793 | 48 ft | 83 kts | 314° |
| 2026-05-06 20:01 | 33.81779 | -118.15137 | 50 ft | 28 kts | 317° |
| 2026-05-06 20:01 | 33.81856 | -118.15049 | 42 ft | 22 kts | 90° |
| 2026-05-06 20:02 | 33.81856 | -118.14918 | 24 ft | 0 kts | 90° |